Time;durP1;ratioP1;P1;durP2;ratioP2;P2;SDS_P1;SDS_P2;PMS_P1;PMS_P2;Temp;Humidity;BMP_temperature;BMP_pressure;BME280_temperature;BME280_humidity;BME280_pressure;Samples;Min_cycle;Max_cycle;Signal;HPM_P1;HPM_P2
2020/12/10 00:01:50;;;;;;;18.00;12.07;;;5.80;83.00;;;4.86;67.05;93950.13;5050777;28;20223;-81
2020/12/10 00:04:18;;;;;;;16.60;11.95;;;5.80;83.10;;;4.85;67.34;93941.53;5050853;28;20580;-80
2020/12/10 00:06:45;;;;;;;17.38;11.65;;;5.70;83.00;;;4.85;67.12;93954.53;5050782;28;20205;-81
2020/12/10 00:09:11;;;;;;;14.90;10.68;;;5.70;82.90;;;4.83;66.77;93945.31;5050728;28;20252;-80
2020/12/10 00:11:38;;;;;;;16.95;11.98;;;5.70;83.00;;;4.80;67.19;93944.66;5050879;28;20210;-81
2020/12/10 00:14:05;;;;;;;16.98;11.70;;;5.70;83.00;;;4.77;67.05;93945.06;5054729;28;20740;-81
2020/12/10 00:16:32;;;;;;;17.05;12.07;;;5.70;82.90;;;4.72;67.16;93947.34;5038047;28;20290;-80
2020/12/10 00:18:59;;;;;;;16.13;11.75;;;5.70;82.90;;;4.70;67.03;93946.75;5054635;28;20573;-80
2020/12/10 00:21:26;;;;;;;14.10;10.95;;;5.70;82.80;;;4.68;67.00;93945.31;5054523;28;20211;-80
2020/12/10 00:23:53;;;;;;;15.70;11.40;;;5.70;82.80;;;4.60;67.02;93933.22;5054333;28;20223;-80
2020/12/10 00:26:20;;;;;;;15.82;11.18;;;5.60;82.70;;;4.60;67.21;93941.81;5054428;28;20203;-81
2020/12/10 00:28:48;;;;;;;14.00;10.45;;;5.60;82.70;;;4.57;67.13;93944.75;5053979;28;20235;-80
2020/12/10 00:31:14;;;;;;;14.90;10.70;;;5.60;82.80;;;4.56;67.30;93942.34;5054035;28;20192;-80
2020/12/10 00:33:41;;;;;;;14.43;10.48;;;5.60;82.80;;;4.54;67.02;93933.94;5034020;28;20212;-79
2020/12/10 00:36:08;;;;;;;14.95;10.75;;;5.60;82.80;;;4.52;67.26;93935.88;5017735;28;20209;-80
2020/12/10 00:38:35;;;;;;;15.23;10.60;;;5.50;83.50;;;4.47;66.96;93931.25;5048256;28;20723;-79
2020/12/10 00:41:01;;;;;;;12.60;9.57;;;5.50;82.80;;;4.46;67.35;93930.44;5053871;28;20208;-81
2020/12/10 00:43:28;;;;;;;15.68;11.10;;;5.50;82.80;;;4.38;67.21;93929.72;5036906;28;20196;-80
2020/12/10 00:45:55;;;;;;;16.42;10.98;;;5.40;82.80;;;4.42;67.07;93944.75;5025977;28;20831;-81
2020/12/10 00:48:22;;;;;;;15.70;10.20;;;5.40;82.80;;;4.40;67.13;93935.53;5053274;28;20255;-80
2020/12/10 00:50:49;;;;;;;14.30;10.15;;;5.40;82.90;;;4.41;67.00;93940.53;5022003;28;20203;-81
2020/12/10 00:53:16;;;;;;;13.68;10.40;;;5.40;82.90;;;4.40;67.34;93935.53;5020933;28;20204;-80
2020/12/10 00:55:43;;;;;;;15.05;11.05;;;5.40;82.90;;;4.38;67.26;93935.72;5054014;28;20269;-80
2020/12/10 00:58:10;;;;;;;12.68;9.70;;;5.30;82.90;;;4.37;67.21;93936.72;5020888;28;20611;-79
2020/12/10 01:00:37;;;;;;;11.70;8.77;;;5.30;82.90;;;4.37;67.15;93938.47;5020506;28;20216;-80
2020/12/10 01:03:04;;;;;;;15.13;10.02;;;5.30;82.80;;;4.34;67.46;93929.25;5022904;28;20283;-80
2020/12/10 01:05:31;;;;;;;13.40;8.90;;;5.30;82.90;;;4.32;67.36;93934.63;5053459;28;20284;-80
2020/12/10 01:07:59;;;;;;;14.52;10.25;;;5.40;82.90;;;4.30;67.02;93939.19;5053306;28;20263;-80
2020/12/10 01:10:25;;;;;;;11.88;9.48;;;5.40;83.00;;;4.29;67.32;93934.97;5036858;28;20212;-80
2020/12/10 01:12:52;;;;;;;13.93;9.52;;;5.30;82.90;;;4.26;67.58;93931.94;5053344;28;20202;-80
2020/12/10 01:15:19;;;;;;;12.57;8.90;;;5.30;82.90;;;4.25;67.52;93935.53;5036993;28;20377;-80
2020/12/10 01:17:45;;;;;;;13.40;9.48;;;5.30;82.90;;;4.22;67.26;93941.06;5033266;28;20208;-79
2020/12/10 01:20:12;;;;;;;14.48;10.15;;;5.20;82.80;;;4.20;67.49;93935.22;5033613;28;20667;-80
2020/12/10 01:22:39;;;;;;;12.52;9.07;;;5.30;82.90;;;4.13;67.31;93925.56;5052880;28;20571;-81
2020/12/10 01:25:06;;;;;;;12.95;8.95;;;5.20;82.80;;;4.16;67.42;93932.19;5052133;28;20686;-81
2020/12/10 01:27:33;;;;;;;11.75;8.55;;;5.20;82.80;;;4.12;67.30;93917.97;5036580;28;20199;-81
2020/12/10 01:30:00;;;;;;;10.85;8.38;;;5.20;82.90;;;4.11;67.42;93916.34;5036125;28;20314;-80
2020/12/10 01:32:27;;;;;;;11.10;8.15;;;5.20;82.90;;;4.11;67.40;93919.75;5020375;28;20239;-80
2020/12/10 01:34:54;;;;;;;8.65;6.65;;;5.10;82.80;;;4.10;67.27;93909.53;5036493;28;20303;-80
2020/12/10 01:37:21;;;;;;;9.73;7.00;;;5.20;82.90;;;4.10;67.23;93912.13;5036739;28;20204;-80
2020/12/10 01:39:48;;;;;;;6.75;5.97;;;5.10;82.90;;;4.09;67.48;93913.94;5053039;28;20281;-80
2020/12/10 01:42:15;;;;;;;9.07;6.63;;;5.10;82.90;;;4.08;67.18;93903.75;5019299;28;20208;-80
2020/12/10 01:44:42;;;;;;;8.00;6.55;;;5.00;82.90;;;4.06;67.73;93906.47;5036421;28;20220;-80
2020/12/10 01:47:10;;;;;;;8.02;6.18;;;5.10;83.00;;;4.05;67.54;93904.88;5036158;28;20204;-80
2020/12/10 01:49:39;;;;;;;7.22;6.07;;;5.00;83.00;;;4.04;67.70;93899.88;5036443;28;20227;-80
2020/12/10 01:52:06;;;;;;;7.80;6.32;;;5.00;83.00;;;4.01;67.88;93893.25;5036076;28;20207;-80
2020/12/10 01:54:34;;;;;;;8.93;6.80;;;5.10;83.00;;;4.01;67.71;93895.84;5035852;28;20269;-79
2020/12/10 01:57:01;;;;;;;8.60;6.32;;;5.00;83.00;;;3.99;67.64;93893.44;5036037;28;20200;-80
2020/12/10 01:59:28;;;;;;;8.02;6.35;;;5.00;83.10;;;3.99;67.88;93900.38;5015811;28;20311;-81
2020/12/10 02:01:55;;;;;;;7.63;6.47;;;5.10;83.10;;;3.95;67.88;93891.34;5016224;28;20206;-80
2020/12/10 02:04:34;;;;;;;7.32;5.88;;;4.90;83.00;;;3.99;67.31;93901.22;5032650;28;20216;-80
2020/12/10 02:07:02;;;;;;;10.02;7.97;;;4.90;83.10;;;3.94;67.73;93890.56;5032560;28;20576;-81
2020/12/10 02:09:28;;;;;;;8.82;7.22;;;4.90;83.00;;;3.95;67.67;93886.16;5015983;28;20279;-80
2020/12/10 02:11:56;;;;;;;11.00;8.15;;;5.00;83.10;;;3.94;67.85;93889.75;5027756;28;20231;-80
2020/12/10 02:14:31;;;;;;;13.70;10.57;;;4.90;83.00;;;3.90;68.20;93896.28;5035590;28;20262;-80
2020/12/10 02:16:59;;;;;;;12.70;9.88;;;4.90;83.10;;;3.88;67.95;93887.84;5052256;28;20211;-80
2020/12/10 02:19:26;;;;;;;13.00;9.60;;;4.90;83.10;;;3.87;68.08;93894.84;5019280;28;20622;-80
2020/12/10 02:21:54;;;;;;;12.68;9.55;;;4.90;83.20;;;3.85;68.17;93887.22;5053223;28;20188;-80
2020/12/10 02:24:21;;;;;;;13.02;10.20;;;4.90;83.20;;;3.85;68.19;93881.22;5035530;28;20756;-80
2020/12/10 02:26:49;;;;;;;13.32;9.77;;;4.90;83.30;;;3.84;68.22;93870.06;5051978;28;20600;-80
2020/12/10 02:29:17;;;;;;;12.65;9.65;;;4.90;83.30;;;3.85;68.29;93870.84;5018872;28;20246;-80
2020/12/10 02:31:45;;;;;;;13.07;9.35;;;4.80;83.30;;;3.85;68.35;93868.25;5019150;28;20281;-80
2020/12/10 02:34:13;;;;;;;15.18;10.88;;;4.80;83.30;;;3.86;67.97;93869.88;5035164;28;20223;-80
2020/12/10 02:36:42;;;;;;;13.48;9.80;;;4.90;83.40;;;3.77;68.42;93855.34;5018570;28;20204;-81
2020/12/10 02:39:09;;;;;;;14.93;10.02;;;4.80;83.30;;;3.83;68.30;93862.44;5035199;28;20216;-80
2020/12/10 02:41:38;;;;;;;15.43;10.50;;;4.80;83.40;;;3.84;68.22;93861.44;5035241;28;20192;-80
2020/12/10 02:44:05;;;;;;;15.15;10.43;;;4.80;83.40;;;3.83;68.57;93860.66;5035063;28;20670;-80
2020/12/10 02:46:32;;;;;;;13.80;10.35;;;4.80;83.40;;;3.82;68.47;93848.66;5035085;28;20618;-81
2020/12/10 02:48:59;;;;;;;13.00;9.32;;;4.80;83.50;;;3.83;68.03;93855.47;5034844;28;20607;-79
2020/12/10 02:51:27;;;;;;;12.07;8.35;;;4.80;83.40;;;3.84;68.49;93851.91;5035267;28;20196;-81
2020/12/10 02:53:54;;;;;;;12.65;9.63;;;4.80;83.40;;;3.84;68.26;93853.66;5034992;28;20219;-80
2020/12/10 02:56:21;;;;;;;12.60;9.15;;;4.80;83.50;;;3.83;68.39;93860.66;5051781;28;20647;-80
2020/12/10 02:58:47;;;;;;;13.45;10.00;;;4.80;83.50;;;3.83;68.30;93852.88;5034705;28;20224;-79
2020/12/10 03:01:14;;;;;;;12.45;9.60;;;4.80;83.60;;;3.82;68.57;93858.22;5035150;28;20204;-80
2020/12/10 03:03:40;;;;;;;14.75;10.27;;;4.80;83.50;;;3.78;68.51;93856.97;5018389;28;20206;-80
2020/12/10 03:06:08;;;;;;;13.30;9.82;;;4.80;83.60;;;3.74;68.66;93851.31;5034781;28;20223;-81
2020/12/10 03:08:36;;;;;;;13.60;9.95;;;4.80;83.60;;;3.77;68.52;93853.59;5051102;28;20215;-80
2020/12/10 03:11:05;;;;;;;14.07;10.02;;;4.80;83.60;;;3.78;68.35;93851.78;5034746;28;20253;-79
2020/12/10 03:13:32;;;;;;;13.57;9.98;;;4.80;83.60;;;3.80;68.73;93853.22;5034285;28;20203;-79
2020/12/10 03:15:59;;;;;;;15.10;10.88;;;4.80;83.70;;;3.82;68.51;93853.03;5031231;28;20204;-79
2020/12/10 03:18:26;;;;;;;15.73;11.20;;;4.80;83.70;;;3.80;68.70;93855.00;5030993;28;20193;-79
2020/12/10 03:20:54;;;;;;;13.73;9.77;;;4.80;83.70;;;3.81;68.68;93843.66;5027895;28;20653;-79
2020/12/10 03:23:21;;;;;;;15.25;11.68;;;4.80;83.60;;;3.75;68.71;93833.97;5055896;28;20191;-80
2020/12/10 03:25:48;;;;;;;14.93;11.00;;;4.80;83.70;;;3.77;68.27;93844.97;5034657;28;20654;-81
2020/12/10 03:28:15;;;;;;;13.27;10.13;;;4.80;83.60;;;3.80;68.50;93847.22;5034355;28;20230;-80
2020/12/10 03:30:43;;;;;;;14.18;10.45;;;4.80;83.60;;;3.79;68.48;93843.03;5018231;28;20227;-80
2020/12/10 03:33:09;;;;;;;18.85;12.65;;;4.80;83.70;;;3.80;68.43;93835.06;5018092;28;20643;-80
2020/12/10 03:35:36;;;;;;;17.02;11.63;;;4.80;83.70;;;3.79;68.66;93838.63;5018371;28;20322;-80
2020/12/10 03:38:03;;;;;;;19.08;12.20;;;4.80;83.70;;;3.77;68.76;93829.41;5018311;28;20254;-80
2020/12/10 03:40:31;;;;;;;17.77;12.10;;;4.80;83.70;;;3.73;68.78;93830.75;5050839;28;20207;-80
2020/12/10 03:42:57;;;;;;;18.58;11.88;;;4.80;83.70;;;3.78;68.55;93829.25;5034484;28;20199;-80
2020/12/10 03:45:24;;;;;;;17.85;11.77;;;4.80;83.70;;;3.78;68.60;93833.63;5034576;28;20220;-81
2020/12/10 03:47:51;;;;;;;16.60;11.52;;;4.80;83.70;;;3.77;68.45;93838.03;5036454;28;20208;-79
2020/12/10 03:50:18;;;;;;;18.35;12.45;;;4.80;83.70;;;3.76;68.47;93836.41;5054803;28;20301;-80
2020/12/10 03:52:44;;;;;;;18.33;13.25;;;4.80;83.70;;;3.75;68.69;93832.19;5038175;28;20677;-80
2020/12/10 03:55:11;;;;;;;17.73;12.18;;;4.80;83.70;;;3.74;68.46;93828.00;5021962;28;20714;-80
2020/12/10 03:57:38;;;;;;;16.67;11.48;;;4.70;83.60;;;3.75;68.70;93824.41;5021801;28;20200;-80
2020/12/10 04:00:04;;;;;;;19.00;12.65;;;4.70;83.60;;;3.77;68.41;93829.41;5038551;28;20262;-81
2020/12/10 04:02:31;;;;;;;18.40;12.15;;;4.70;83.60;;;3.78;68.61;93828.44;5021839;28;20685;-80
2020/12/10 04:04:58;;;;;;;16.58;11.98;;;4.70;83.70;;;3.74;68.24;93822.81;5038346;28;20207;-80
2020/12/10 04:07:26;;;;;;;19.92;12.82;;;4.70;83.60;;;3.75;68.31;93824.41;5021703;28;20196;-80
2020/12/10 04:09:53;;;;;;;18.67;12.60;;;4.70;83.60;;;3.75;68.52;93824.41;5054182;28;20256;-79
2020/12/10 04:12:20;;;;;;;16.73;11.75;;;4.70;83.60;;;3.76;68.48;93828.63;5055149;28;20295;-80
2020/12/10 04:14:47;;;;;;;16.90;12.13;;;4.70;83.60;;;3.73;68.24;93823.00;5034895;28;20286;-79
2020/12/10 04:17:14;;;;;;;17.42;12.23;;;4.70;83.60;;;3.69;68.29;93806.97;5036415;28;20726;-80
2020/12/10 04:19:41;;;;;;;15.40;10.93;;;4.80;83.70;;;3.76;68.37;93825.22;5034794;28;20357;-80
2020/12/10 04:22:08;;;;;;;16.30;12.50;;;4.70;83.60;;;3.72;68.30;93819.56;5047771;28;20258;-80
2020/12/10 04:24:35;;;;;;;14.50;10.63;;;4.70;83.60;;;3.74;68.54;93833.19;5050527;28;20759;-80
2020/12/10 04:27:02;;;;;;;14.27;11.32;;;4.80;83.70;;;3.73;68.57;93830.75;5068098;28;20208;-79
2020/12/10 04:29:29;;;;;;;16.38;11.43;;;4.70;83.60;;;3.67;68.16;93817.53;5032949;28;20224;-80
2020/12/10 04:31:56;;;;;;;15.32;10.90;;;4.80;84.50;;;3.73;68.44;93825.59;5028852;28;20224;-80
2020/12/10 04:34:23;;;;;;;14.27;10.75;;;4.70;83.60;;;3.70;68.44;93816.38;5035831;28;20217;-80
2020/12/10 04:36:49;;;;;;;14.82;10.80;;;4.70;83.60;;;3.74;68.15;93830.59;5038286;28;20218;-79
2020/12/10 04:39:16;;;;;;;14.05;10.45;;;4.70;83.70;;;3.74;68.44;93830.59;5020019;28;20589;-79
2020/12/10 04:41:45;;;;;;;12.88;10.00;;;4.70;83.60;;;3.73;68.65;93821.19;5037165;28;20200;-80
2020/12/10 04:44:12;;;;;;;13.90;10.68;;;4.70;83.60;;;3.75;68.34;93821.00;5072755;28;20216;-79
2020/12/10 04:46:40;;;;;;;15.07;10.48;;;4.70;83.70;;;3.76;68.39;93820.84;5020152;28;20195;-80
2020/12/10 04:49:09;;;;;;;16.20;11.90;;;4.70;83.60;;;3.75;68.39;93821.00;5019057;28;20243;-79
2020/12/10 04:51:37;;;;;;;14.93;10.57;;;4.80;83.70;;;3.72;68.56;93816.97;5051710;28;20762;-80
2020/12/10 04:54:05;;;;;;;14.52;10.38;;;4.70;83.60;;;3.75;68.58;93823.59;5051796;28;20224;-79
2020/12/10 04:56:31;;;;;;;14.43;10.90;;;4.70;83.60;;;3.73;68.48;93818.59;5053550;28;20511;-79
2020/12/10 04:58:58;;;;;;;14.07;10.43;;;4.70;83.70;;;3.69;68.43;93815.53;5052647;28;20227;-79
2020/12/10 05:01:26;;;;;;;14.00;10.35;;;4.70;83.70;;;3.69;68.30;93805.16;5053156;28;20184;-79
2020/12/10 05:03:55;;;;;;;12.93;9.77;;;4.70;83.70;;;3.75;68.66;93818.41;5053056;28;20759;-79
2020/12/10 05:06:21;;;;;;;13.80;10.18;;;4.70;83.70;;;3.74;68.45;93809.03;5052598;28;20281;-80
2020/12/10 05:08:49;;;;;;;14.80;10.57;;;4.70;83.70;;;3.74;68.33;93822.81;5051352;28;20247;-78
2020/12/10 05:11:36;;;;;;;15.98;10.23;;;4.70;83.60;;;3.73;68.35;93823.78;5051476;28;20621;-80
2020/12/10 05:14:04;;;;;;;14.38;10.20;;;4.70;84.50;;;3.72;68.51;93823.97;5051720;28;20230;-79
2020/12/10 05:16:31;;;;;;;15.10;10.90;;;4.70;83.60;;;3.73;68.27;93818.59;5051703;28;20699;-78
2020/12/10 05:19:17;;;;;;;14.10;10.10;;;4.70;83.60;;;3.75;68.25;93828.78;5051439;28;20302;-78
2020/12/10 05:22:06;;;;;;;13.60;9.80;;;4.70;83.70;;;3.72;68.01;93831.75;5035677;28;20523;-78
2020/12/10 05:24:34;;;;;;;14.02;10.55;;;4.70;83.60;;;3.72;68.43;93823.97;5036862;28;20228;-78
2020/12/10 05:27:23;;;;;;;13.25;10.20;;;4.70;83.60;;;3.69;68.49;93825.13;5020225;28;20654;-79
2020/12/10 05:29:52;;;;;;;13.27;10.20;;;4.70;83.70;;;3.67;68.48;93819.31;5020153;28;20251;-79
2020/12/10 05:32:40;;;;;;;14.65;10.25;;;4.70;83.60;;;3.63;68.50;93818.06;5020217;28;20662;-79
2020/12/10 05:35:25;;;;;;;13.55;9.75;;;4.70;83.60;;;3.62;68.40;93825.00;5036451;28;20637;-79
2020/12/10 05:37:53;;;;;;;13.65;9.93;;;4.70;83.60;;;3.62;68.26;93824.22;5036403;28;20668;-79
2020/12/10 05:40:21;;;;;;;14.20;10.60;;;4.70;83.60;;;3.62;68.53;93822.41;5020154;28;20207;-78
2020/12/10 05:42:51;;;;;;;13.27;9.88;;;4.70;83.60;;;3.56;68.71;93815.34;5019999;28;20204;-78
2020/12/10 05:45:21;;;;;;;13.40;9.43;;;4.60;83.60;;;3.58;68.67;93815.19;5036534;28;20224;-78
2020/12/10 05:47:58;;;;;;;12.63;9.85;;;4.60;83.60;;;3.60;68.75;93820.97;5021982;28;20250;-78
2020/12/10 05:50:29;;;;;;;13.07;9.75;;;4.60;83.60;;;3.56;68.62;93817.94;5019653;28;20285;-78
2020/12/10 05:53:06;;;;;;;14.75;10.65;;;4.60;83.70;;;3.56;68.79;93823.13;5036128;28;20208;-79
2020/12/10 05:55:40;;;;;;;13.43;9.98;;;4.60;83.70;;;3.56;68.60;93822.31;5019552;28;20600;-78
2020/12/10 05:58:08;;;;;;;13.90;9.50;;;4.60;83.80;;;3.55;69.06;93820.72;5052599;28;20267;-78
2020/12/10 06:00:37;;;;;;;12.40;9.43;;;4.60;83.70;;;3.56;68.99;93822.31;5036038;28;20231;-78
2020/12/10 06:03:05;;;;;;;13.05;9.43;;;4.60;83.80;;;3.55;68.76;93818.91;5052489;28;20666;-79
2020/12/10 06:05:31;;;;;;;11.40;8.68;;;4.50;83.80;;;3.60;68.72;93827.00;5052234;28;20703;-79
2020/12/10 06:08:07;;;;;;;12.88;9.38;;;4.50;83.80;;;3.60;68.84;93815.78;5035814;28;20196;-79
2020/12/10 06:10:39;;;;;;;10.68;8.20;;;4.60;83.90;;;3.60;68.62;93826.16;5018635;28;20227;-79
2020/12/10 06:13:11;;;;;;;13.32;9.38;;;4.60;83.80;;;3.57;68.80;93818.75;5052198;28;20192;-79
2020/12/10 06:15:38;;;;;;;12.88;9.70;;;4.60;83.80;;;3.56;68.69;93817.94;5053283;28;20314;-79
2020/12/10 06:18:15;;;;;;;11.50;9.07;;;4.60;83.80;;;3.55;68.72;93823.31;5032117;28;20211;-78
2020/12/10 06:20:45;;;;;;;13.23;8.98;;;4.60;83.80;;;3.56;68.84;93817.94;5034704;28;20334;-78
2020/12/10 06:23:27;;;;;;;11.13;8.55;;;4.60;83.80;;;3.56;68.86;93810.16;5052670;28;20314;-79
2020/12/10 06:25:56;;;;;;;11.98;8.82;;;4.50;83.90;;;3.56;68.91;93806.78;5048848;28;20203;-79
2020/12/10 06:28:24;;;;;;;12.82;9.68;;;4.50;83.80;;;3.51;68.87;93808.09;5067138;28;20216;-79
2020/12/10 06:31:02;;;;;;;12.40;8.90;;;4.50;83.80;;;3.54;69.00;93801.78;5034937;28;20196;-79
2020/12/10 06:33:44;;;;;;;12.77;9.05;;;4.50;83.90;;;3.53;68.70;93811.31;5077751;28;20757;-78
2020/12/10 06:36:25;;;;;;;11.40;8.25;;;4.60;83.90;;;3.55;68.71;93815.53;5027798;28;20246;-79
2020/12/10 06:38:56;;;;;;;12.30;9.35;;;4.50;83.90;;;3.53;68.86;93811.31;5047340;28;20227;-79
2020/12/10 06:41:24;;;;;;;12.55;9.60;;;4.50;83.90;;;3.52;69.28;93804.50;5029919;28;20216;-79
2020/12/10 06:43:52;;;;;;;12.65;9.02;;;4.50;83.90;;;3.52;69.16;93808.91;5046994;28;20375;-79
2020/12/10 06:46:18;;;;;;;11.63;8.90;;;4.50;84.00;;;3.48;68.98;93808.44;5031050;28;20207;-79
2020/12/10 06:48:48;;;;;;;11.52;9.18;;;4.50;84.00;;;3.47;69.04;93804.25;5047983;28;20232;-78
2020/12/10 06:51:17;;;;;;;10.88;8.15;;;4.50;84.00;;;3.50;69.39;93816.03;5048237;28;20191;-78
2020/12/10 06:53:59;;;;;;;13.35;9.32;;;4.50;84.00;;;3.48;69.22;93813.63;5033324;28;20221;-79
2020/12/10 06:56:26;;;;;;;10.43;8.23;;;4.50;84.10;;;3.48;69.12;93808.44;5051600;28;20265;-79
2020/12/10 06:58:57;;;;;;;10.43;8.38;;;4.50;84.10;;;3.49;69.27;93809.25;5051406;28;20319;-79
2020/12/10 07:01:25;;;;;;;11.23;8.20;;;4.50;84.10;;;3.49;69.24;93809.25;5015625;28;20250;-78
2020/12/10 07:04:09;;;;;;;12.07;9.27;;;4.50;84.10;;;3.48;69.08;93808.44;5031383;28;20567;-78
2020/12/10 07:06:37;;;;;;;11.98;8.73;;;4.50;84.20;;;3.49;69.15;93811.84;5031766;28;20191;-80
2020/12/10 07:09:07;;;;;;;11.38;8.65;;;4.40;84.10;;;3.46;69.12;93794.06;5017771;28;20212;-80
2020/12/10 07:11:43;;;;;;;11.30;7.70;;;4.50;84.20;;;3.49;69.18;93802.28;5034620;28;20704;-79
2020/12/10 07:14:32;;;;;;;11.02;8.40;;;4.50;84.20;;;3.50;69.26;93803.91;5051214;28;20219;-79
2020/12/10 07:17:02;;;;;;;12.20;9.40;;;4.50;84.20;;;3.51;69.31;93797.72;5034299;28;20196;-79
2020/12/10 07:19:29;;;;;;;11.20;8.32;;;4.50;84.20;;;3.52;69.40;93795.94;5050860;28;20231;-78
2020/12/10 07:21:55;;;;;;;11.88;9.07;;;4.50;84.30;;;3.52;69.24;93793.34;5033546;28;20307;-79
2020/12/10 07:24:22;;;;;;;10.98;8.40;;;4.50;84.30;;;3.57;69.14;93805.78;5034699;28;20323;-79
2020/12/10 07:26:49;;;;;;;12.38;8.00;;;4.50;84.30;;;3.57;69.45;93796.22;5014757;28;20502;-79
2020/12/10 07:29:16;;;;;;;10.77;8.45;;;4.60;84.50;;;3.58;69.43;93795.25;5014658;28;20682;-78
2020/12/10 07:31:43;;;;;;;11.88;8.30;;;4.60;84.50;;;3.61;69.32;93794.06;5031207;28;20306;-80
2020/12/10 07:34:12;;;;;;;10.38;8.13;;;4.60;84.50;;;3.63;69.36;93782.53;5031175;28;20231;-79
2020/12/10 07:36:54;;;;;;;10.45;7.78;;;4.60;84.50;;;3.64;69.06;93789.34;5014962;28;20201;-79
2020/12/10 07:39:29;;;;;;;11.20;8.50;;;4.60;84.50;;;3.66;69.41;93786.56;5045368;28;20220;-79
2020/12/10 07:41:57;;;;;;;10.48;7.68;;;4.60;84.50;;;3.65;69.45;93770.22;5014606;28;20298;-80
2020/12/10 07:44:31;;;;;;;10.93;8.25;;;4.60;84.50;;;3.67;69.22;93773.44;5014648;28;20220;-79
2020/12/10 07:47:01;;;;;;;10.65;7.88;;;4.60;84.50;;;3.70;69.32;93769.69;5031207;28;20255;-79
2020/12/10 07:49:32;;;;;;;10.90;8.10;;;4.60;84.50;;;3.68;69.07;93761.28;5014659;28;20232;-79
2020/12/10 07:52:12;;;;;;;13.07;8.38;;;4.60;84.40;;;3.69;69.03;93768.88;5030903;28;20197;-78
2020/12/10 07:54:50;;;;;;;11.20;8.35;;;4.60;84.50;;;3.71;69.15;93779.09;5047518;28;20212;-79
2020/12/10 07:57:29;;;;;;;11.25;9.15;;;4.60;84.50;;;3.66;69.42;93778.78;5014433;28;20193;-78
2020/12/10 08:00:18;;;;;;;13.60;9.35;;;4.70;84.50;;;3.67;69.17;93786.41;5032420;28;20258;-79
2020/12/10 08:03:07;;;;;;;12.18;9.07;;;4.60;84.40;;;3.64;69.26;93773.78;5056830;28;20195;-78
2020/12/10 08:05:34;;;;;;;11.85;8.80;;;4.60;84.40;;;3.65;69.25;93775.41;5049029;28;20243;-78
2020/12/10 08:08:02;;;;;;;13.38;8.82;;;4.60;84.40;;;3.70;69.41;93772.28;5028588;28;20204;-78
2020/12/10 08:10:34;;;;;;;13.93;9.82;;;4.60;84.50;;;3.71;69.39;93766.13;5028794;28;20212;-78
2020/12/10 08:13:20;;;;;;;11.45;8.50;;;4.60;84.50;;;3.66;69.45;93753.69;5028673;28;20601;-78
2020/12/10 08:15:49;;;;;;;12.77;9.50;;;4.70;84.60;;;3.78;69.27;93768.78;5048539;28;20242;-78
2020/12/10 08:18:19;;;;;;;10.38;8.13;;;4.70;84.60;;;3.82;69.38;93773.44;5065448;28;20211;-78
2020/12/10 08:20:51;;;;;;;13.10;9.02;;;4.70;84.60;;;3.84;69.16;93768.91;5065016;28;20213;-79
2020/12/10 08:23:20;;;;;;;12.10;9.02;;;4.70;84.60;;;3.88;69.02;93766.72;5032168;28;20192;-78
2020/12/10 08:25:48;;;;;;;14.05;9.77;;;4.70;84.70;;;3.93;69.36;93767.00;5032509;28;20745;-79
2020/12/10 08:28:15;;;;;;;13.07;9.10;;;4.70;84.70;;;3.94;69.44;93755.66;5034015;28;20235;-79
2020/12/10 08:30:53;;;;;;;14.13;9.68;;;4.80;84.80;;;3.93;69.03;93758.41;5033761;28;20228;-80
2020/12/10 08:33:20;;;;;;;13.20;9.75;;;4.80;84.70;;;3.94;69.33;93754.84;5036340;28;20195;-79
2020/12/10 08:35:48;;;;;;;13.68;9.98;;;4.80;84.70;;;3.94;69.22;93737.50;5035171;28;20216;-80
2020/12/10 08:38:16;;;;;;;17.42;9.93;;;4.90;84.80;;;3.92;69.74;93728.25;5035675;28;20214;-78
2020/12/10 08:40:44;;;;;;;15.05;10.55;;;4.90;84.70;;;3.92;69.77;93717.88;5052893;28;20264;-79
2020/12/10 08:43:14;;;;;;;13.60;9.60;;;4.90;84.70;;;3.92;69.69;93725.66;5047289;28;20298;-79
2020/12/10 08:45:46;;;;;;;12.73;9.82;;;4.90;84.70;;;3.91;69.61;93732.66;5031998;28;20224;-79
2020/12/10 08:48:17;;;;;;;11.48;8.35;;;4.90;84.80;;;3.94;69.29;93741.88;5033252;28;20204;-79
2020/12/10 08:50:53;;;;;;;13.73;8.90;;;4.80;84.80;;;3.95;69.22;93746.06;5033408;28;20503;-79
2020/12/10 08:53:19;;;;;;;12.18;9.02;;;4.90;84.80;;;4.00;69.47;93748.94;5033358;28;20189;-79
2020/12/10 08:55:55;;;;;;;14.20;9.70;;;4.90;84.80;;;4.01;69.55;93747.94;5033633;28;20662;-79
2020/12/10 08:58:28;;;;;;;13.32;9.50;;;4.90;84.80;;;4.04;69.35;93755.38;5033725;28;20682;-80
2020/12/10 09:00:59;;;;;;;14.73;9.70;;;4.90;84.80;;;4.04;69.48;93752.78;5033938;28;20192;-80
2020/12/10 09:03:26;;;;;;;13.57;8.95;;;4.90;84.80;;;4.10;69.38;93752.06;5050554;28;20204;-79
2020/12/10 09:05:53;;;;;;;12.30;8.85;;;4.90;84.90;;;4.18;69.27;93761.53;5033649;28;20197;-80
2020/12/10 09:08:20;;;;;;;12.75;8.32;;;4.90;84.90;;;4.24;69.03;93765.22;5050224;28;20205;-80
2020/12/10 09:10:49;;;;;;;14.07;9.05;;;5.00;84.90;;;4.25;69.10;93753.84;5034100;28;20220;-79
2020/12/10 09:13:16;;;;;;;12.73;7.75;;;5.10;84.90;;;4.31;69.17;93758.31;5018132;28;20208;-80
2020/12/10 09:15:44;;;;;;;13.02;9.27;;;5.10;84.80;;;4.31;68.98;93756.50;5036992;28;20274;-80
2020/12/10 09:18:12;;;;;;;14.35;9.32;;;5.10;84.70;;;4.29;69.20;93742.91;5053244;28;20204;-79
2020/12/10 09:20:40;;;;;;;14.45;8.65;;;5.10;84.70;;;4.35;69.00;93745.78;5020394;28;20442;-79
2020/12/10 09:23:08;;;;;;;11.57;8.30;;;5.20;84.80;;;4.39;68.84;93742.59;5036878;28;20196;-79
2020/12/10 09:25:35;;;;;;;12.95;8.93;;;5.20;84.90;;;4.37;68.97;93746.38;5036892;28;20227;-78
2020/12/10 09:28:02;;;;;;;11.75;8.30;;;5.20;84.80;;;4.38;68.79;93735.84;5036590;28;20200;-79
2020/12/10 09:30:30;;;;;;;12.70;8.32;;;5.20;84.80;;;4.42;69.03;93744.03;5052845;28;20594;-79
2020/12/10 09:32:58;;;;;;;12.73;8.80;;;5.20;84.80;;;4.43;69.14;93741.28;5050186;28;20204;-79
2020/12/10 09:35:24;;;;;;;13.43;8.55;;;5.20;84.80;;;4.47;68.99;93739.13;5068775;28;20244;-79
2020/12/10 09:37:52;;;;;;;13.45;8.75;;;5.30;84.90;;;4.46;68.90;93738.28;5050526;28;20200;-78
2020/12/10 09:40:19;;;;;;;12.00;7.80;;;5.30;84.80;;;4.44;68.92;93736.88;5067263;28;20211;-79
2020/12/10 09:42:49;;;;;;;13.07;8.07;;;5.30;84.70;;;4.51;68.97;93737.75;5067174;28;20246;-78
2020/12/10 09:45:17;;;;;;;10.95;7.60;;;5.30;84.70;;;4.49;68.90;93732.75;5034017;28;20306;-79
2020/12/10 09:47:47;;;;;;;12.48;8.00;;;5.30;84.70;;;4.51;68.87;93731.75;5037790;28;20222;-78
2020/12/10 09:50:21;;;;;;;13.20;7.95;;;5.40;84.80;;;4.47;68.80;93726.13;5050671;28;20275;-78
2020/12/10 09:56:11;;;;;;;27.58;9.40;;;5.40;84.60;;;4.44;69.01;93726.50;5037025;28;20278;-79
2020/12/10 09:58:34;;;;;;;14.68;8.95;;;5.30;84.50;;;4.43;69.08;93723.09;5050214;28;20204;-79
2020/12/10 10:01:01;;;;;;;16.42;9.77;;;5.40;84.50;;;4.40;68.93;93707.09;5050396;28;20273;-79
2020/12/10 10:03:28;;;;;;;15.93;9.32;;;5.30;84.50;;;4.42;69.23;93705.09;5033717;28;20658;-78
2020/12/10 10:05:56;;;;;;;16.58;9.82;;;5.30;84.60;;;4.45;68.95;93710.72;5017877;28;20223;-79
2020/12/10 10:08:26;;;;;;;16.70;9.57;;;5.30;84.70;;;4.45;68.74;93702.94;5051052;28;20219;-79
2020/12/10 10:10:54;;;;;;;16.38;10.60;;;5.30;84.70;;;4.43;69.18;93697.13;5036089;28;20227;-79
2020/12/10 10:13:21;;;;;;;14.93;8.70;;;5.30;84.70;;;4.43;69.01;93710.13;5035732;28;20274;-79
2020/12/10 10:15:49;;;;;;;12.90;9.20;;;5.30;84.70;;;4.44;68.92;93705.72;5052257;28;20673;-79
2020/12/10 10:18:16;;;;;;;17.30;8.60;;;5.30;84.80;;;4.43;69.25;93699.72;5066858;28;20670;-78
2020/12/10 10:20:45;;;;;;;12.57;8.43;;;5.30;84.70;;;4.48;69.50;93694.78;5051641;28;20207;-77
2020/12/10 10:23:12;;;;;;;14.98;9.02;;;5.40;84.90;;;4.53;69.05;93690.81;5052040;28;20223;-79
2020/12/10 10:25:39;;;;;;;15.73;9.23;;;5.40;85.70;;;4.57;69.41;93689.47;5051716;28;20239;-79
2020/12/10 10:28:07;;;;;;;13.57;9.07;;;5.40;85.10;;;4.54;69.34;93672.47;5051366;28;20713;-79
2020/12/10 10:30:34;;;;;;;13.35;9.38;;;5.40;85.10;;;4.60;69.51;93682.13;5048348;28;20220;-79
2020/12/10 10:33:01;;;;;;;13.35;8.55;;;5.40;85.10;;;4.63;69.46;93675.75;5040778;28;20261;-80
2020/12/10 10:35:28;;;;;;;14.60;8.63;;;5.50;85.20;;;4.67;69.67;93671.00;5068666;28;20294;-80